sensor_id;sensor_type;location;lat;lon;timestamp;pressure;altitude;pressure_sealevel;temperature;humidity
68941;BME280;55982;51.476;7.552;2023-07-24T00:00:19;98876.25;;;18.79;100.00
68941;BME280;55982;51.476;7.552;2023-07-24T00:02:44;98865.94;;;18.76;100.00
68941;BME280;55982;51.476;7.552;2023-07-24T00:05:10;98857.03;;;18.77;100.00
68941;BME280;55982;51.476;7.552;2023-07-24T00:07:35;98867.63;;;18.77;100.00
68941;BME280;55982;51.476;7.552;2023-07-24T00:10:02;98868.63;;;18.65;100.00
68941;BME280;55982;51.476;7.552;2023-07-24T00:12:27;98864.44;;;18.83;100.00
68941;BME280;55982;51.476;7.552;2023-07-24T00:14:53;98851.72;;;18.77;100.00
68941;BME280;55982;51.476;7.552;2023-07-24T00:17:18;98860.19;;;18.60;100.00
68941;BME280;55982;51.476;7.552;2023-07-24T00:19:44;98864.03;;;18.67;100.00
68941;BME280;55982;51.476;7.552;2023-07-24T00:22:09;98866.91;;;18.64;100.00
68941;BME280;55982;51.476;7.552;2023-07-24T00:24:35;98857.53;;;18.71;100.00
68941;BME280;55982;51.476;7.552;2023-07-24T00:27:00;98853.22;;;18.59;100.00
68941;BME280;55982;51.476;7.552;2023-07-24T00:29:26;98849.00;;;18.56;100.00
68941;BME280;55982;51.476;7.552;2023-07-24T00:31:52;98851.19;;;18.51;100.00
68941;BME280;55982;51.476;7.552;2023-07-24T00:34:17;98843.38;;;18.50;100.00
68941;BME280;55982;51.476;7.552;2023-07-24T00:36:42;98845.03;;;18.51;100.00
68941;BME280;55982;51.476;7.552;2023-07-24T00:39:08;98839.25;;;18.57;100.00
68941;BME280;55982;51.476;7.552;2023-07-24T00:41:33;98831.06;;;18.49;100.00
68941;BME280;55982;51.476;7.552;2023-07-24T00:43:58;98821.66;;;18.56;100.00
68941;BME280;55982;51.476;7.552;2023-07-24T00:46:24;98819.63;;;18.48;100.00
68941;BME280;55982;51.476;7.552;2023-07-24T00:48:50;98815.44;;;18.46;100.00
68941;BME280;55982;51.476;7.552;2023-07-24T00:51:16;98815.19;;;18.49;100.00
68941;BME280;55982;51.476;7.552;2023-07-24T00:53:42;98812.06;;;18.44;100.00
68941;BME280;55982;51.476;7.552;2023-07-24T00:56:08;98813.03;;;18.32;100.00
68941;BME280;55982;51.476;7.552;2023-07-24T00:58:37;98811.59;;;18.27;100.00
68941;BME280;55982;51.476;7.552;2023-07-24T01:01:02;98811.59;;;18.27;100.00
68941;BME280;55982;51.476;7.552;2023-07-24T01:03:33;98804.84;;;18.23;100.00
68941;BME280;55982;51.476;7.552;2023-07-24T01:06:01;98812.66;;;18.25;100.00
68941;BME280;55982;51.476;7.552;2023-07-24T01:08:27;98805.13;;;18.20;100.00
68941;BME280;55982;51.476;7.552;2023-07-24T01:10:52;98806.56;;;18.24;100.00
68941;BME280;55982;51.476;7.552;2023-07-24T01:13:24;98813.06;;;18.20;100.00
68941;BME280;55982;51.476;7.552;2023-07-24T01:16:02;98813.78;;;18.22;100.00
68941;BME280;55982;51.476;7.552;2023-07-24T01:18:30;98811.09;;;18.34;100.00
68941;BME280;55982;51.476;7.552;2023-07-24T01:20:57;98806.41;;;18.37;100.00
68941;BME280;55982;51.476;7.552;2023-07-24T01:23:45;98800.50;;;18.34;100.00
68941;BME280;55982;51.476;7.552;2023-07-24T01:26:16;98796.88;;;18.35;100.00
68941;BME280;55982;51.476;7.552;2023-07-24T01:28:41;98787.63;;;18.40;100.00
68941;BME280;55982;51.476;7.552;2023-07-24T01:31:07;98770.06;;;18.28;100.00
68941;BME280;55982;51.476;7.552;2023-07-24T01:33:33;98787.31;;;18.22;100.00
68941;BME280;55982;51.476;7.552;2023-07-24T01:36:02;98788.03;;;18.13;100.00
68941;BME280;55982;51.476;7.552;2023-07-24T01:38:31;98782.00;;;18.22;100.00
68941;BME280;55982;51.476;7.552;2023-07-24T01:40:57;98776.94;;;18.19;100.00
68941;BME280;55982;51.476;7.552;2023-07-24T01:43:24;98773.34;;;18.20;100.00
68941;BME280;55982;51.476;7.552;2023-07-24T01:45:51;98773.09;;;18.23;100.00
68941;BME280;55982;51.476;7.552;2023-07-24T01:48:16;98771.44;;;18.11;100.00
68941;BME280;55982;51.476;7.552;2023-07-24T01:50:42;98768.81;;;18.11;100.00
68941;BME280;55982;51.476;7.552;2023-07-24T01:53:07;98769.28;;;18.05;100.00
68941;BME280;55982;51.476;7.552;2023-07-24T01:55:32;98762.06;;;18.07;100.00
68941;BME280;55982;51.476;7.552;2023-07-24T01:57:58;98764.47;;;17.99;100.00
68941;BME280;55982;51.476;7.552;2023-07-24T02:00:23;98758.47;;;17.97;100.00
68941;BME280;55982;51.476;7.552;2023-07-24T02:02:48;98752.69;;;17.92;100.00
68941;BME280;55982;51.476;7.552;2023-07-24T02:05:14;98754.66;;;17.90;100.00
68941;BME280;55982;51.476;7.552;2023-07-24T02:07:39;98751.03;;;17.91;100.00
68941;BME280;55982;51.476;7.552;2023-07-24T02:10:05;98744.75;;;17.92;100.00
68941;BME280;55982;51.476;7.552;2023-07-24T02:12:30;98746.69;;;17.90;100.00
68941;BME280;55982;51.476;7.552;2023-07-24T02:14:56;98742.09;;;17.92;100.00
68941;BME280;55982;51.476;7.552;2023-07-24T02:17:23;98733.22;;;17.93;100.00
68941;BME280;55982;51.476;7.552;2023-07-24T02:19:48;98728.88;;;17.92;100.00
68941;BME280;55982;51.476;7.552;2023-07-24T02:22:15;98731.28;;;17.95;100.00
68941;BME280;55982;51.476;7.552;2023-07-24T02:24:40;98723.22;;;17.97;100.00
68941;BME280;55982;51.476;7.552;2023-07-24T02:27:05;98724.66;;;18.01;100.00
68941;BME280;55982;51.476;7.552;2023-07-24T02:29:31;98725.00;;;18.07;100.00
68941;BME280;55982;51.476;7.552;2023-07-24T02:31:57;98721.16;;;18.11;100.00
68941;BME280;55982;51.476;7.552;2023-07-24T02:34:23;98717.25;;;18.15;100.00
68941;BME280;55982;51.476;7.552;2023-07-24T02:36:52;98711.66;;;18.09;100.00
68941;BME280;55982;51.476;7.552;2023-07-24T02:39:18;98717.66;;;18.11;100.00
68941;BME280;55982;51.476;7.552;2023-07-24T02:41:43;98717.66;;;18.11;100.00
68941;BME280;55982;51.476;7.552;2023-07-24T02:44:09;98709.59;;;18.12;100.00
68941;BME280;55982;51.476;7.552;2023-07-24T02:46:34;98714.44;;;18.07;100.00
68941;BME280;55982;51.476;7.552;2023-07-24T02:48:59;98707.19;;;18.09;100.00
68941;BME280;55982;51.476;7.552;2023-07-24T02:51:25;98703.31;;;18.13;100.00
68941;BME280;55982;51.476;7.552;2023-07-24T02:53:50;98700.31;;;18.18;100.00
68941;BME280;55982;51.476;7.552;2023-07-24T02:56:15;98694.78;;;18.21;100.00
68941;BME280;55982;51.476;7.552;2023-07-24T02:58:41;98692.00;;;18.22;100.00
68941;BME280;55982;51.476;7.552;2023-07-24T03:01:07;98692.00;;;18.22;100.00
68941;BME280;55982;51.476;7.552;2023-07-24T03:03:33;98692.72;;;18.24;100.00
68941;BME280;55982;51.476;7.552;2023-07-24T03:05:59;98698.72;;;18.26;100.00
68941;BME280;55982;51.476;7.552;2023-07-24T03:08:25;98700.25;;;18.29;100.00
68941;BME280;55982;51.476;7.552;2023-07-24T03:10:50;98700.16;;;18.31;100.00
68941;BME280;55982;51.476;7.552;2023-07-24T03:13:15;98679.56;;;18.34;100.00
68941;BME280;55982;51.476;7.552;2023-07-24T03:15:41;98670.50;;;18.37;100.00
68941;BME280;55982;51.476;7.552;2023-07-24T03:18:06;98662.53;;;18.37;100.00
68941;BME280;55982;51.476;7.552;2023-07-24T03:20:31;98661.72;;;18.36;100.00
68941;BME280;55982;51.476;7.552;2023-07-24T03:22:57;98650.03;;;18.39;100.00
68941;BME280;55982;51.476;7.552;2023-07-24T03:25:22;98633.56;;;18.35;100.00
68941;BME280;55982;51.476;7.552;2023-07-24T03:27:48;98658.94;;;18.38;100.00
68941;BME280;55982;51.476;7.552;2023-07-24T03:30:13;98668.38;;;18.31;100.00
68941;BME280;55982;51.476;7.552;2023-07-24T03:32:38;98674.75;;;18.28;100.00
68941;BME280;55982;51.476;7.552;2023-07-24T03:35:05;98681.84;;;18.27;100.00
68941;BME280;55982;51.476;7.552;2023-07-24T03:37:31;98668.47;;;18.29;100.00
68941;BME280;55982;51.476;7.552;2023-07-24T03:39:56;98668.47;;;18.29;100.00
68941;BME280;55982;51.476;7.552;2023-07-24T03:42:29;98648.28;;;18.28;100.00
68941;BME280;55982;51.476;7.552;2023-07-24T03:44:56;98628.75;;;18.29;100.00
68941;BME280;55982;51.476;7.552;2023-07-24T03:47:22;98638.41;;;18.30;100.00
68941;BME280;55982;51.476;7.552;2023-07-24T03:49:48;98640.47;;;18.26;100.00
68941;BME280;55982;51.476;7.552;2023-07-24T03:52:13;98636.59;;;18.31;100.00
68941;BME280;55982;51.476;7.552;2023-07-24T03:54:39;98640.34;;;18.28;100.00
68941;BME280;55982;51.476;7.552;2023-07-24T03:57:04;98635.41;;;18.23;100.00
68941;BME280;55982;51.476;7.552;2023-07-24T03:59:30;98638.78;;;18.25;100.00
68941;BME280;55982;51.476;7.552;2023-07-24T04:01:56;98633.25;;;18.28;100.00
68941;BME280;55982;51.476;7.552;2023-07-24T04:04:21;98633.25;;;18.28;100.00
68941;BME280;55982;51.476;7.552;2023-07-24T04:06:47;98625.53;;;18.25;100.00
68941;BME280;55982;51.476;7.552;2023-07-24T04:09:12;98622.91;;;18.25;100.00
68941;BME280;55982;51.476;7.552;2023-07-24T04:11:42;98623.38;;;18.31;100.00
68941;BME280;55982;51.476;7.552;2023-07-24T04:14:08;98622.66;;;18.28;100.00
68941;BME280;55982;51.476;7.552;2023-07-24T04:16:33;98628.66;;;18.31;100.00
68941;BME280;55982;51.476;7.552;2023-07-24T04:18:58;98621.13;;;18.47;100.00
68941;BME280;55982;51.476;7.552;2023-07-24T04:21:24;98617.16;;;18.41;100.00
68941;BME280;55982;51.476;7.552;2023-07-24T04:23:49;98618.00;;;18.42;100.00
68941;BME280;55982;51.476;7.552;2023-07-24T04:26:14;98617.53;;;18.37;100.00
68941;BME280;55982;51.476;7.552;2023-07-24T04:28:40;98629.09;;;18.36;100.00
68941;BME280;55982;51.476;7.552;2023-07-24T04:31:05;98628.59;;;18.42;100.00
68941;BME280;55982;51.476;7.552;2023-07-24T04:33:30;98628.34;;;18.45;100.00
68941;BME280;55982;51.476;7.552;2023-07-24T04:35:56;98628.59;;;18.42;100.00
68941;BME280;55982;51.476;7.552;2023-07-24T04:38:22;98633.28;;;18.49;100.00
68941;BME280;55982;51.476;7.552;2023-07-24T04:40:47;98629.00;;;18.58;100.00
68941;BME280;55982;51.476;7.552;2023-07-24T04:43:13;98626.56;;;18.66;100.00
68941;BME280;55982;51.476;7.552;2023-07-24T04:45:38;98619.06;;;18.71;100.00
68941;BME280;55982;51.476;7.552;2023-07-24T04:48:04;98636.06;;;18.68;100.00
68941;BME280;55982;51.476;7.552;2023-07-24T04:50:29;98627.00;;;18.71;100.00
68941;BME280;55982;51.476;7.552;2023-07-24T04:52:55;98622.28;;;18.74;100.00
68941;BME280;55982;51.476;7.552;2023-07-24T04:55:21;98623.56;;;18.80;100.00
68941;BME280;55982;51.476;7.552;2023-07-24T04:57:46;98617.44;;;18.79;100.00
68941;BME280;55982;51.476;7.552;2023-07-24T05:00:12;98613.34;;;18.75;100.00
68941;BME280;55982;51.476;7.552;2023-07-24T05:02:38;98615.25;;;18.84;100.00
68941;BME280;55982;51.476;7.552;2023-07-24T05:05:03;98611.03;;;18.82;100.00
68941;BME280;55982;51.476;7.552;2023-07-24T05:07:29;98613.25;;;18.77;100.00
68941;BME280;55982;51.476;7.552;2023-07-24T05:09:54;98617.84;;;18.75;100.00
68941;BME280;55982;51.476;7.552;2023-07-24T05:12:20;98615.19;;;18.75;100.00
68941;BME280;55982;51.476;7.552;2023-07-24T05:14:45;98620.66;;;18.83;100.00
68941;BME280;55982;51.476;7.552;2023-07-24T05:17:11;98612.16;;;18.89;100.00
68941;BME280;55982;51.476;7.552;2023-07-24T05:19:37;98613.16;;;18.88;100.00
68941;BME280;55982;51.476;7.552;2023-07-24T05:22:02;98621.09;;;18.88;100.00
68941;BME280;55982;51.476;7.552;2023-07-24T05:24:28;98625.22;;;18.81;100.00
68941;BME280;55982;51.476;7.552;2023-07-24T05:26:53;98633.38;;;18.89;100.00
68941;BME280;55982;51.476;7.552;2023-07-24T05:29:18;98633.47;;;18.78;100.00
68941;BME280;55982;51.476;7.552;2023-07-24T05:31:44;98640.25;;;18.71;100.00
68941;BME280;55982;51.476;7.552;2023-07-24T05:34:09;98623.19;;;18.64;100.00
68941;BME280;55982;51.476;7.552;2023-07-24T05:36:35;98640.00;;;18.53;100.00
68941;BME280;55982;51.476;7.552;2023-07-24T05:39:00;98632.91;;;18.54;100.00
68941;BME280;55982;51.476;7.552;2023-07-24T05:41:25;98635.09;;;18.49;100.00
68941;BME280;55982;51.476;7.552;2023-07-24T05:43:51;98627.84;;;18.51;100.00
68941;BME280;55982;51.476;7.552;2023-07-24T05:46:16;98626.50;;;18.56;100.00
68941;BME280;55982;51.476;7.552;2023-07-24T05:48:42;98640.50;;;18.68;100.00
68941;BME280;55982;51.476;7.552;2023-07-24T05:51:07;98649.50;;;18.76;100.00
68941;BME280;55982;51.476;7.552;2023-07-24T05:53:32;98645.88;;;18.77;100.00
68941;BME280;55982;51.476;7.552;2023-07-24T05:55:59;98646.44;;;18.81;100.00
68941;BME280;55982;51.476;7.552;2023-07-24T05:58:25;98655.56;;;18.88;100.00
68941;BME280;55982;51.476;7.552;2023-07-24T06:00:50;98651.84;;;19.00;100.00
68941;BME280;55982;51.476;7.552;2023-07-24T06:03:16;98667.22;;;19.06;100.00
68941;BME280;55982;51.476;7.552;2023-07-24T06:05:41;98660.50;;;19.02;100.00
68941;BME280;55982;51.476;7.552;2023-07-24T06:08:06;98669.44;;;19.01;100.00
68941;BME280;55982;51.476;7.552;2023-07-24T06:10:34;98669.72;;;18.98;100.00
68941;BME280;55982;51.476;7.552;2023-07-24T06:12:59;98669.91;;;18.85;100.00
68941;BME280;55982;51.476;7.552;2023-07-24T06:15:25;98673.03;;;19.00;100.00
68941;BME280;55982;51.476;7.552;2023-07-24T06:17:50;98669.22;;;19.13;100.00
68941;BME280;55982;51.476;7.552;2023-07-24T06:20:16;98663.72;;;19.26;100.00
68941;BME280;55982;51.476;7.552;2023-07-24T06:22:41;98668.03;;;19.27;100.00
68941;BME280;55982;51.476;7.552;2023-07-24T06:25:07;98647.19;;;19.13;100.00
68941;BME280;55982;51.476;7.552;2023-07-24T06:27:32;98676.88;;;19.07;100.00
68941;BME280;55982;51.476;7.552;2023-07-24T06:29:58;98670.59;;;19.08;100.00
68941;BME280;55982;51.476;7.552;2023-07-24T06:32:23;98670.78;;;19.16;100.00
68941;BME280;55982;51.476;7.552;2023-07-24T06:34:49;98673.59;;;19.54;100.00
68941;BME280;55982;51.476;7.552;2023-07-24T06:37:14;98671.66;;;20.05;100.00
68941;BME280;55982;51.476;7.552;2023-07-24T06:39:40;98667.09;;;20.27;100.00
68941;BME280;55982;51.476;7.552;2023-07-24T06:42:05;98669.25;;;20.02;100.00
68941;BME280;55982;51.476;7.552;2023-07-24T06:44:30;98668.34;;;19.73;100.00
68941;BME280;55982;51.476;7.552;2023-07-24T06:46:56;98675.03;;;19.58;100.00
68941;BME280;55982;51.476;7.552;2023-07-24T06:49:21;98664.13;;;19.52;100.00
68941;BME280;55982;51.476;7.552;2023-07-24T06:51:46;98672.50;;;19.57;100.00
68941;BME280;55982;51.476;7.552;2023-07-24T06:54:12;98671.94;;;19.53;100.00
68941;BME280;55982;51.476;7.552;2023-07-24T06:56:37;98668.59;;;19.51;100.00
68941;BME280;55982;51.476;7.552;2023-07-24T06:59:03;98670.53;;;19.49;100.00
68941;BME280;55982;51.476;7.552;2023-07-24T07:01:28;98667.53;;;19.73;100.00
68941;BME280;55982;51.476;7.552;2023-07-24T07:03:53;98655.81;;;19.94;100.00
68941;BME280;55982;51.476;7.552;2023-07-24T07:06:19;98654.72;;;20.06;100.00
68941;BME280;55982;51.476;7.552;2023-07-24T07:08:45;98649.81;;;20.12;100.00
68941;BME280;55982;51.476;7.552;2023-07-24T07:11:11;98646.09;;;20.43;100.00
68941;BME280;55982;51.476;7.552;2023-07-24T07:13:36;98646.94;;;20.53;100.00
68941;BME280;55982;51.476;7.552;2023-07-24T07:16:01;98645.16;;;21.09;100.00
68941;BME280;55982;51.476;7.552;2023-07-24T07:18:27;98634.16;;;21.31;100.00
68941;BME280;55982;51.476;7.552;2023-07-24T07:20:53;98628.25;;;21.37;100.00
68941;BME280;55982;51.476;7.552;2023-07-24T07:23:19;98630.59;;;21.67;100.00
68941;BME280;55982;51.476;7.552;2023-07-24T07:25:45;98618.06;;;21.77;100.00
68941;BME280;55982;51.476;7.552;2023-07-24T07:28:12;98608.44;;;22.12;100.00
68941;BME280;55982;51.476;7.552;2023-07-24T07:30:37;98614.09;;;22.26;100.00
68941;BME280;55982;51.476;7.552;2023-07-24T07:33:02;98605.31;;;22.34;100.00
68941;BME280;55982;51.476;7.552;2023-07-24T07:35:30;98605.28;;;22.69;100.00
68941;BME280;55982;51.476;7.552;2023-07-24T07:37:56;98605.81;;;22.55;100.00
68941;BME280;55982;51.476;7.552;2023-07-24T07:40:21;98598.56;;;22.22;100.00
68941;BME280;55982;51.476;7.552;2023-07-24T07:42:48;98603.28;;;21.93;100.00
68941;BME280;55982;51.476;7.552;2023-07-24T07:45:14;98595.72;;;22.06;100.00
68941;BME280;55982;51.476;7.552;2023-07-24T07:47:39;98596.94;;;22.11;100.00
68941;BME280;55982;51.476;7.552;2023-07-24T07:50:05;98588.06;;;22.20;100.00
68941;BME280;55982;51.476;7.552;2023-07-24T07:52:30;98597.72;;;22.21;100.00
68941;BME280;55982;51.476;7.552;2023-07-24T07:54:56;98596.75;;;22.05;100.00
68941;BME280;55982;51.476;7.552;2023-07-24T07:57:21;98591.84;;;21.82;100.00
68941;BME280;55982;51.476;7.552;2023-07-24T07:59:46;98602.69;;;21.71;100.00
68941;BME280;55982;51.476;7.552;2023-07-24T08:02:12;98589.38;;;21.71;100.00
68941;BME280;55982;51.476;7.552;2023-07-24T08:04:37;98588.59;;;21.89;100.00
68941;BME280;55982;51.476;7.552;2023-07-24T08:07:03;98591.84;;;21.82;100.00
68941;BME280;55982;51.476;7.552;2023-07-24T08:09:28;98590.72;;;22.03;100.00
68941;BME280;55982;51.476;7.552;2023-07-24T08:11:54;98586.81;;;21.79;100.00
68941;BME280;55982;51.476;7.552;2023-07-24T08:14:19;98598.66;;;21.67;100.00
68941;BME280;55982;51.476;7.552;2023-07-24T08:16:47;98598.53;;;21.87;100.00
68941;BME280;55982;51.476;7.552;2023-07-24T08:19:13;98598.72;;;21.58;100.00
68941;BME280;55982;51.476;7.552;2023-07-24T08:21:38;98589.09;;;21.74;100.00
68941;BME280;55982;51.476;7.552;2023-07-24T08:24:04;98584.53;;;21.84;100.00
68941;BME280;55982;51.476;7.552;2023-07-24T08:26:29;98579.81;;;22.14;100.00
68941;BME280;55982;51.476;7.552;2023-07-24T08:28:55;98568.78;;;22.26;100.00
68941;BME280;55982;51.476;7.552;2023-07-24T08:31:20;98570.06;;;22.40;100.00
68941;BME280;55982;51.476;7.552;2023-07-24T08:33:46;98577.00;;;22.76;100.00
68941;BME280;55982;51.476;7.552;2023-07-24T08:36:11;98564.09;;;22.46;100.00
68941;BME280;55982;51.476;7.552;2023-07-24T08:38:37;98570.94;;;23.00;100.00
68941;BME280;55982;51.476;7.552;2023-07-24T08:41:09;98552.34;;;23.57;100.00
68941;BME280;55982;51.476;7.552;2023-07-24T08:43:36;98546.00;;;23.50;100.00
68941;BME280;55982;51.476;7.552;2023-07-24T08:46:03;98557.75;;;23.82;100.00
68941;BME280;55982;51.476;7.552;2023-07-24T08:48:32;98554.78;;;24.81;100.00
68941;BME280;55982;51.476;7.552;2023-07-24T08:51:05;98550.09;;;24.83;100.00
68941;BME280;55982;51.476;7.552;2023-07-24T08:53:32;98547.78;;;24.08;100.00
68941;BME280;55982;51.476;7.552;2023-07-24T08:56:05;98547.94;;;24.55;100.00
68941;BME280;55982;51.476;7.552;2023-07-24T08:58:30;98554.00;;;24.16;100.00
68941;BME280;55982;51.476;7.552;2023-07-24T09:00:57;98553.44;;;24.61;100.00
68941;BME280;55982;51.476;7.552;2023-07-24T09:03:23;98546.44;;;24.76;100.00
68941;BME280;55982;51.476;7.552;2023-07-24T09:05:48;98547.34;;;24.99;100.00
68941;BME280;55982;51.476;7.552;2023-07-24T09:08:14;98536.03;;;24.89;100.00
68941;BME280;55982;51.476;7.552;2023-07-24T09:10:39;98553.81;;;24.26;100.00
68941;BME280;55982;51.476;7.552;2023-07-24T09:13:05;98546.38;;;23.63;100.00
68941;BME280;55982;51.476;7.552;2023-07-24T09:15:43;98523.25;;;23.30;100.00
68941;BME280;55982;51.476;7.552;2023-07-24T09:18:09;98560.66;;;23.05;100.00
68941;BME280;55982;51.476;7.552;2023-07-24T09:20:42;98563.53;;;23.19;100.00
68941;BME280;55982;51.476;7.552;2023-07-24T09:23:09;98566.94;;;22.96;100.00
68941;BME280;55982;51.476;7.552;2023-07-24T09:25:36;98558.91;;;22.88;100.00
68941;BME280;55982;51.476;7.552;2023-07-24T09:28:16;98553.25;;;22.91;100.00
68941;BME280;55982;51.476;7.552;2023-07-24T09:30:51;98549.63;;;23.33;100.00
68941;BME280;55982;51.476;7.552;2023-07-24T09:33:16;98539.31;;;23.46;100.00
68941;BME280;55982;51.476;7.552;2023-07-24T09:35:42;98541.16;;;23.46;100.00
68941;BME280;55982;51.476;7.552;2023-07-24T09:38:09;98544.59;;;23.30;100.00
68941;BME280;55982;51.476;7.552;2023-07-24T09:40:53;98540.69;;;22.83;100.00
68941;BME280;55982;51.476;7.552;2023-07-24T09:43:21;98542.34;;;22.76;100.00
68941;BME280;55982;51.476;7.552;2023-07-24T09:45:47;98545.94;;;22.67;100.00
68941;BME280;55982;51.476;7.552;2023-07-24T09:48:14;98537.06;;;22.84;100.00
68941;BME280;55982;51.476;7.552;2023-07-24T09:50:42;98547.06;;;22.90;100.00
68941;BME280;55982;51.476;7.552;2023-07-24T09:53:22;98549.66;;;22.74;100.00
68941;BME280;55982;51.476;7.552;2023-07-24T09:55:55;98547.06;;;22.39;100.00
68941;BME280;55982;51.476;7.552;2023-07-24T09:58:21;98538.25;;;22.21;100.00
68941;BME280;55982;51.476;7.552;2023-07-24T10:00:48;98545.53;;;22.11;100.00
68941;BME280;55982;51.476;7.552;2023-07-24T10:03:14;98538.59;;;21.82;100.00
68941;BME280;55982;51.476;7.552;2023-07-24T10:05:41;98536.50;;;22.29;100.00
68941;BME280;55982;51.476;7.552;2023-07-24T10:08:09;98528.69;;;22.79;100.00
68941;BME280;55982;51.476;7.552;2023-07-24T10:10:36;98527.38;;;23.17;100.00
68941;BME280;55982;51.476;7.552;2023-07-24T10:13:02;98527.84;;;23.12;100.00
68941;BME280;55982;51.476;7.552;2023-07-24T10:15:28;98530.03;;;22.83;100.00
68941;BME280;55982;51.476;7.552;2023-07-24T10:18:02;98523.00;;;22.74;100.00
68941;BME280;55982;51.476;7.552;2023-07-24T10:20:33;98522.75;;;21.99;100.00
68941;BME280;55982;51.476;7.552;2023-07-24T10:23:01;98527.03;;;21.92;100.00
68941;BME280;55982;51.476;7.552;2023-07-24T10:25:31;98531.59;;;21.81;100.00
68941;BME280;55982;51.476;7.552;2023-07-24T10:28:08;98522.38;;;21.76;100.00
68941;BME280;55982;51.476;7.552;2023-07-24T10:30:40;98523.19;;;21.86;100.00
68941;BME280;55982;51.476;7.552;2023-07-24T10:33:06;98526.63;;;22.04;100.00
68941;BME280;55982;51.476;7.552;2023-07-24T10:35:39;98532.84;;;22.30;100.00
68941;BME280;55982;51.476;7.552;2023-07-24T10:38:05;98525.75;;;22.39;100.00
68941;BME280;55982;51.476;7.552;2023-07-24T10:40:30;98524.31;;;22.27;100.00
68941;BME280;55982;51.476;7.552;2023-07-24T10:43:18;98534.56;;;21.96;100.00
68941;BME280;55982;51.476;7.552;2023-07-24T10:45:50;98532.66;;;21.89;100.00
68941;BME280;55982;51.476;7.552;2023-07-24T10:48:17;98528.72;;;21.93;100.00
68941;BME280;55982;51.476;7.552;2023-07-24T10:50:44;98522.84;;;22.32;100.00
68941;BME280;55982;51.476;7.552;2023-07-24T10:53:13;98521.94;;;22.67;100.00
68941;BME280;55982;51.476;7.552;2023-07-24T10:55:38;98527.50;;;22.73;100.00
68941;BME280;55982;51.476;7.552;2023-07-24T10:58:05;98528.38;;;22.82;100.00
68941;BME280;55982;51.476;7.552;2023-07-24T11:00:30;98528.13;;;23.01;100.00
68941;BME280;55982;51.476;7.552;2023-07-24T11:02:56;98520.31;;;23.08;100.00
68941;BME280;55982;51.476;7.552;2023-07-24T11:05:22;98508.63;;;23.50;100.00
68941;BME280;55982;51.476;7.552;2023-07-24T11:07:48;98516.00;;;23.81;100.00
68941;BME280;55982;51.476;7.552;2023-07-24T11:10:21;98509.31;;;23.60;100.00
68941;BME280;55982;51.476;7.552;2023-07-24T11:12:48;98503.53;;;24.05;100.00
68941;BME280;55982;51.476;7.552;2023-07-24T11:15:14;98491.66;;;24.24;100.00
68941;BME280;55982;51.476;7.552;2023-07-24T11:17:41;98483.47;;;24.41;100.00
68941;BME280;55982;51.476;7.552;2023-07-24T11:20:16;98489.78;;;25.42;100.00
68941;BME280;55982;51.476;7.552;2023-07-24T11:22:43;98492.66;;;24.94;100.00
68941;BME280;55982;51.476;7.552;2023-07-24T11:25:11;98491.63;;;24.00;100.00
68941;BME280;55982;51.476;7.552;2023-07-24T11:27:39;98500.78;;;23.07;100.00
68941;BME280;55982;51.476;7.552;2023-07-24T11:30:05;98514.59;;;22.61;100.00
68941;BME280;55982;51.476;7.552;2023-07-24T11:32:30;98511.97;;;21.82;100.00
68941;BME280;55982;51.476;7.552;2023-07-24T11:34:56;98523.06;;;21.16;100.00
68941;BME280;55982;51.476;7.552;2023-07-24T11:37:21;98525.13;;;20.85;100.00
68941;BME280;55982;51.476;7.552;2023-07-24T11:39:58;98521.94;;;20.45;100.00
68941;BME280;55982;51.476;7.552;2023-07-24T11:42:25;98517.19;;;20.39;100.00
68941;BME280;55982;51.476;7.552;2023-07-24T11:44:51;98502.31;;;20.55;100.00
68941;BME280;55982;51.476;7.552;2023-07-24T11:47:16;98503.06;;;20.75;100.00
68941;BME280;55982;51.476;7.552;2023-07-24T11:49:42;98496.88;;;20.84;100.00
68941;BME280;55982;51.476;7.552;2023-07-24T11:52:13;98494.03;;;20.95;100.00
68941;BME280;55982;51.476;7.552;2023-07-24T11:54:38;98499.75;;;21.27;100.00
68941;BME280;55982;51.476;7.552;2023-07-24T11:57:14;98488.03;;;21.20;100.00
68941;BME280;55982;51.476;7.552;2023-07-24T11:59:41;98485.59;;;21.09;100.00
68941;BME280;55982;51.476;7.552;2023-07-24T12:02:10;98480.88;;;21.03;100.00
68941;BME280;55982;51.476;7.552;2023-07-24T12:04:37;98483.66;;;20.92;100.00
68941;BME280;55982;51.476;7.552;2023-07-24T12:07:07;98479.31;;;20.73;100.00
68941;BME280;55982;51.476;7.552;2023-07-24T12:09:33;98486.63;;;20.62;100.00
68941;BME280;55982;51.476;7.552;2023-07-24T12:11:59;98513.94;;;20.45;100.00
68941;BME280;55982;51.476;7.552;2023-07-24T12:14:24;98524.59;;;20.16;100.00
68941;BME280;55982;51.476;7.552;2023-07-24T12:17:02;98525.75;;;19.94;100.00
68941;BME280;55982;51.476;7.552;2023-07-24T12:19:28;98531.19;;;19.64;100.00
68941;BME280;55982;51.476;7.552;2023-07-24T12:21:53;98525.34;;;19.51;100.00
68941;BME280;55982;51.476;7.552;2023-07-24T12:24:19;98520.50;;;19.26;100.00
68941;BME280;55982;51.476;7.552;2023-07-24T12:26:44;98564.59;;;19.27;100.00
68941;BME280;55982;51.476;7.552;2023-07-24T12:29:09;98615.38;;;19.13;100.00
68941;BME280;55982;51.476;7.552;2023-07-24T12:31:35;98602.38;;;18.80;100.00
68941;BME280;55982;51.476;7.552;2023-07-24T12:34:00;98610.72;;;18.34;100.00
68941;BME280;55982;51.476;7.552;2023-07-24T12:36:26;98562.75;;;17.64;100.00
68941;BME280;55982;51.476;7.552;2023-07-24T12:38:52;98562.34;;;17.48;100.00
68941;BME280;55982;51.476;7.552;2023-07-24T12:41:17;98562.28;;;17.70;100.00
68941;BME280;55982;51.476;7.552;2023-07-24T12:43:43;98569.16;;;17.93;100.00
68941;BME280;55982;51.476;7.552;2023-07-24T12:46:09;98575.38;;;18.03;100.00